Time;durP1;ratioP1;P1;durP2;ratioP2;P2;SDS_P1;SDS_P2;PMS_P1;PMS_P2;Temp;Humidity;BMP_temperature;BMP_pressure;BME280_temperature;BME280_humidity;BME280_pressure;Samples;Min_cycle;Max_cycle;Signal;HPM_P1;HPM_P2
2023/09/09 04:02:54;;;;;;;3.87;3.30;;;20.60;78.10;;;;;;4899201;29;20588;-68
2023/09/09 04:05:21;;;;;;;3.67;3.37;;;20.60;78.30;;;;;;4899948;29;20450;-68
2023/09/09 04:07:48;;;;;;;3.50;3.20;;;20.60;78.30;;;;;;4899323;29;20485;-68
2023/09/09 04:10:14;;;;;;;4.13;3.73;;;20.50;78.40;;;;;;4899564;29;20457;-68
2023/09/09 04:12:41;;;;;;;5.30;4.43;;;20.50;78.60;;;;;;4899731;29;20472;-68
2023/09/09 04:15:09;;;;;;;4.27;3.87;;;20.50;78.70;;;;;;4900044;29;21010;-68
2023/09/09 04:17:38;;;;;;;4.03;3.70;;;20.40;78.70;;;;;;4899693;29;20473;-68
2023/09/09 04:20:08;;;;;;;4.13;3.77;;;20.40;78.90;;;;;;4899357;29;20453;-68
2023/09/09 04:22:35;;;;;;;4.13;3.80;;;20.30;79.20;;;;;;4900028;29;20556;-68
2023/09/09 04:25:01;;;;;;;3.70;3.40;;;20.30;79.40;;;;;;4899593;29;20501;-68
2023/09/09 04:27:28;;;;;;;4.40;4.00;;;20.30;79.30;;;;;;4899117;29;20998;-68
2023/09/09 04:29:55;;;;;;;5.23;4.57;;;20.20;79.90;;;;;;4899503;29;20454;-68
2023/09/09 04:32:21;;;;;;;4.43;3.70;;;20.30;79.70;;;;;;4899372;29;20470;-67
2023/09/09 04:34:48;;;;;;;3.87;3.43;;;20.30;79.80;;;;;;4899389;29;20445;-68
2023/09/09 04:37:16;;;;;;;4.27;3.97;;;20.40;79.60;;;;;;4899300;29;20450;-68
2023/09/09 04:39:43;;;;;;;4.13;3.73;;;20.40;79.60;;;;;;4899307;29;20453;-68
2023/09/09 04:42:09;;;;;;;4.50;4.10;;;20.40;79.40;;;;;;4899155;29;20521;-68
2023/09/09 04:44:36;;;;;;;4.93;4.10;;;20.40;79.60;;;;;;4899187;29;20452;-68
2023/09/09 04:47:03;;;;;;;4.10;3.80;;;20.40;79.50;;;;;;4899083;29;20446;-68
2023/09/09 04:49:29;;;;;;;5.20;4.60;;;20.50;79.40;;;;;;4899129;29;20828;-68
2023/09/09 04:51:56;;;;;;;3.87;3.53;;;20.50;79.40;;;;;;4898705;29;20987;-68
2023/09/09 04:54:24;;;;;;;4.50;4.10;;;20.50;79.40;;;;;;4898760;29;20454;-68
2023/09/09 04:56:51;;;;;;;4.73;4.33;;;20.60;79.20;;;;;;4898942;29;20445;-68
2023/09/09 04:59:17;;;;;;;4.33;4.03;;;20.60;79.00;;;;;;4898939;29;20501;-68
2023/09/09 05:01:44;;;;;;;4.40;4.00;;;20.70;78.90;;;;;;4898555;29;20489;-68
2023/09/09 05:04:10;;;;;;;4.23;3.83;;;20.70;78.90;;;;;;4898863;29;20450;-69
2023/09/09 05:06:37;;;;;;;4.27;3.97;;;20.60;78.90;;;;;;4898800;29;20446;-68
2023/09/09 05:09:04;;;;;;;3.83;3.53;;;20.60;79.10;;;;;;4898739;29;20486;-68
2023/09/09 05:11:32;;;;;;;3.57;3.27;;;20.60;79.20;;;;;;4898659;29;20470;-68
2023/09/09 05:13:58;;;;;;;4.30;4.00;;;20.60;79.10;;;;;;4898643;29;20541;-68
2023/09/09 05:16:25;;;;;;;4.63;4.10;;;20.70;79.00;;;;;;4898647;29;20457;-68
2023/09/09 05:18:52;;;;;;;4.33;3.93;;;20.80;78.70;;;;;;4898929;29;20450;-68
2023/09/09 05:21:19;;;;;;;4.13;3.77;;;20.90;78.60;;;;;;4898483;29;20465;-68
2023/09/09 05:23:45;;;;;;;5.90;4.03;;;21.00;78.30;;;;;;4898542;29;20453;-68
2023/09/09 05:26:12;;;;;;;4.00;3.70;;;21.10;78.20;;;;;;4898465;29;20453;-68
2023/09/09 05:28:40;;;;;;;4.63;4.20;;;21.20;77.90;;;;;;4898440;29;20485;-68
2023/09/09 05:31:07;;;;;;;4.00;3.60;;;21.20;78.00;;;;;;4898387;29;20472;-68
2023/09/09 05:33:33;;;;;;;5.20;4.70;;;21.30;77.80;;;;;;4898399;29;20460;-68
2023/09/09 05:36:00;;;;;;;3.87;3.57;;;21.40;77.70;;;;;;4898391;29;20452;-68
2023/09/09 05:38:29;;;;;;;4.13;3.73;;;21.50;77.70;;;;;;4898335;29;20827;-68
2023/09/09 05:40:56;;;;;;;4.40;4.00;;;21.60;77.50;;;;;;4898221;29;20476;-68
2023/09/09 05:43:23;;;;;;;3.73;3.43;;;21.80;77.50;;;;;;4898282;29;20465;-68
2023/09/09 05:45:51;;;;;;;4.20;3.90;;;21.90;77.10;;;;;;4898278;29;20441;-68
2023/09/09 05:48:17;;;;;;;4.73;4.33;;;22.10;76.90;;;;;;4898191;29;20873;-68
2023/09/09 05:50:44;;;;;;;4.27;3.87;;;22.40;76.90;;;;;;4898140;29;20544;-68
2023/09/09 05:53:11;;;;;;;4.13;3.60;;;22.80;76.40;;;;;;4898190;29;20452;-68
2023/09/09 05:55:38;;;;;;;4.00;3.60;;;23.40;75.20;;;;;;4898140;29;20456;-68
2023/09/09 05:58:05;;;;;;;3.67;3.37;;;24.20;72.80;;;;;;4898135;29;20450;-68
2023/09/09 06:00:31;;;;;;;3.70;3.40;;;25.00;70.80;;;;;;4898002;29;20528;-69
2023/09/09 06:02:59;;;;;;;3.80;3.50;;;25.90;68.80;;;;;;4898166;29;20450;-69
2023/09/09 06:05:26;;;;;;;3.80;3.37;;;26.70;67.10;;;;;;4898109;29;20501;-69
2023/09/09 06:07:53;;;;;;;3.97;3.60;;;27.50;65.30;;;;;;4897721;29;21006;-68
2023/09/09 06:10:19;;;;;;;3.70;3.40;;;28.20;63.80;;;;;;4897781;29;20446;-69
2023/09/09 06:12:46;;;;;;;6.17;3.20;;;28.80;61.80;;;;;;4898071;29;20474;-69
2023/09/09 06:15:13;;;;;;;4.27;3.60;;;29.20;61.30;;;;;;4897961;29;20504;-69
2023/09/09 06:17:41;;;;;;;3.70;3.40;;;29.70;59.80;;;;;;4898081;29;20452;-69
2023/09/09 06:20:11;;;;;;;4.10;3.50;;;29.80;58.60;;;;;;4898102;29;20477;-69
2023/09/09 06:22:37;;;;;;;4.17;3.77;;;29.20;60.10;;;;;;4898034;29;20477;-69
2023/09/09 06:25:05;;;;;;;3.70;3.40;;;28.70;61.30;;;;;;4898161;29;20882;-70
2023/09/09 06:27:32;;;;;;;3.40;3.10;;;29.50;60.50;;;;;;4897651;29;20939;-69
2023/09/09 06:29:58;;;;;;;3.30;3.03;;;29.80;59.30;;;;;;4898161;29;20449;-69
2023/09/09 06:32:25;;;;;;;4.40;3.70;;;29.90;59.30;;;;;;4899634;29;20473;-70
2023/09/09 06:34:52;;;;;;;4.23;3.83;;;31.00;58.20;;;;;;4901558;29;20457;-70
2023/09/09 06:37:19;;;;;;;3.97;3.67;;;31.70;55.90;;;;;;4901489;29;20898;-70
2023/09/09 06:39:46;;;;;;;3.60;3.30;;;32.30;55.80;;;;;;4901181;29;20880;-70
2023/09/09 06:42:14;;;;;;;3.40;3.10;;;33.00;53.40;;;;;;4901352;29;20473;-70
2023/09/09 06:44:41;;;;;;;3.80;3.10;;;33.80;52.70;;;;;;4901387;29;20481;-70
2023/09/09 06:47:10;;;;;;;3.80;3.50;;;34.00;51.50;;;;;;4901316;29;20456;-69
2023/09/09 06:49:36;;;;;;;3.57;3.27;;;34.60;50.70;;;;;;4901173;29;20489;-70
2023/09/09 06:52:04;;;;;;;3.80;3.50;;;34.90;50.60;;;;;;4901190;29;20520;-70
2023/09/09 06:54:32;;;;;;;3.37;3.10;;;34.70;50.50;;;;;;4901206;29;20453;-70
2023/09/09 06:56:58;;;;;;;3.43;3.10;;;35.30;50.30;;;;;;4901174;29;20453;-70
2023/09/09 06:59:25;;;;;;;3.63;3.33;;;36.10;48.80;;;;;;4901165;29;20448;-70
2023/09/09 07:01:52;;;;;;;3.23;2.93;;;36.90;47.70;;;;;;4900690;29;20492;-70
2023/09/09 07:04:19;;;;;;;3.00;2.80;;;36.90;47.90;;;;;;4901279;29;20449;-68
2023/09/09 07:06:45;;;;;;;3.80;2.90;;;36.80;47.10;;;;;;4901086;29;20449;-68
2023/09/09 07:09:20;;;;;;;5.00;3.50;;;36.00;48.10;;;;;;4900985;29;20499;-70
2023/09/09 07:11:48;;;;;;;3.30;3.00;;;34.20;50.90;;;;;;4900945;29;20560;-68
2023/09/09 07:14:15;;;;;;;3.40;3.10;;;33.20;53.50;;;;;;4900847;29;20453;-69
2023/09/09 07:16:41;;;;;;;3.60;3.30;;;32.20;55.00;;;;;;4900845;29;20460;-69
2023/09/09 07:19:21;;;;;;;3.37;3.07;;;31.80;56.50;;;;;;4900753;29;20454;-69
2023/09/09 07:21:47;;;;;;;4.23;3.10;;;31.40;57.70;;;;;;4900691;29;20839;-69
2023/09/09 07:24:14;;;;;;;4.93;3.23;;;31.00;57.50;;;;;;4900735;29;20452;-69
2023/09/09 07:26:41;;;;;;;3.70;3.40;;;30.40;58.90;;;;;;4900595;29;20445;-68
2023/09/09 07:29:09;;;;;;;3.77;3.47;;;30.30;59.30;;;;;;4900564;29;20500;-69
2023/09/09 07:31:35;;;;;;;3.33;2.90;;;30.10;60.60;;;;;;4900371;29;20832;-69
2023/09/09 07:34:02;;;;;;;3.20;2.90;;;30.20;60.20;;;;;;4901307;29;20450;-69
2023/09/09 07:36:29;;;;;;;3.40;3.10;;;30.20;60.40;;;;;;4900509;29;20457;-68
2023/09/09 07:38:56;;;;;;;3.33;3.03;;;29.90;61.20;;;;;;4900878;29;20449;-69
2023/09/09 07:41:23;;;;;;;3.63;3.10;;;29.90;60.60;;;;;;4900329;29;20925;-69
2023/09/09 07:43:49;;;;;;;3.50;3.20;;;29.70;61.90;;;;;;4899169;29;20803;-69
2023/09/09 07:46:17;;;;;;;3.43;3.13;;;29.60;61.80;;;;;;4900361;29;20449;-69
2023/09/09 07:48:44;;;;;;;3.80;3.23;;;29.50;63.20;;;;;;4900202;29;20489;-68
2023/09/09 07:51:11;;;;;;;3.60;3.10;;;29.60;62.30;;;;;;4900252;29;20884;-69
2023/09/09 07:53:37;;;;;;;3.60;3.30;;;29.60;62.70;;;;;;4899893;29;20881;-69
2023/09/09 07:56:04;;;;;;;3.33;3.03;;;29.70;62.00;;;;;;4900085;29;20837;-68
2023/09/09 07:58:31;;;;;;;4.30;4.00;;;29.40;63.60;;;;;;4900146;29;20450;-68
2023/09/09 08:00:59;;;;;;;3.40;3.10;;;29.20;64.00;;;;;;4899852;29;20485;-69
2023/09/09 08:03:27;;;;;;;3.77;3.47;;;29.20;63.30;;;;;;4899846;29;20524;-69
2023/09/09 08:06:01;;;;;;;3.60;3.30;;;29.20;64.00;;;;;;4899926;29;20509;-68
2023/09/09 08:08:28;;;;;;;3.47;3.17;;;29.10;63.90;;;;;;4899840;29;20477;-68
2023/09/09 08:10:55;;;;;;;3.30;3.00;;;28.90;64.60;;;;;;4899761;29;20470;-68
2023/09/09 08:13:22;;;;;;;5.00;3.10;;;29.20;64.60;;;;;;4899559;29;20944;-68
2023/09/09 08:15:49;;;;;;;3.93;3.60;;;29.00;64.30;;;;;;4899757;29;20635;-68
2023/09/09 08:18:15;;;;;;;3.73;3.43;;;29.10;65.00;;;;;;4899802;29;20521;-70
2023/09/09 08:20:44;;;;;;;3.60;3.30;;;28.70;66.20;;;;;;4899377;29;20481;-68
2023/09/09 08:23:10;;;;;;;3.23;2.93;;;28.40;67.40;;;;;;4899370;29;20947;-68
2023/09/09 08:25:37;;;;;;;3.60;3.30;;;28.40;67.90;;;;;;4899246;29;20863;-68
2023/09/09 08:28:04;;;;;;;3.77;3.43;;;28.40;66.40;;;;;;4899240;29;21007;-68
2023/09/09 08:30:31;;;;;;;3.33;3.03;;;28.20;67.20;;;;;;4899390;29;20859;-70
2023/09/09 08:32:58;;;;;;;4.07;3.70;;;28.30;67.00;;;;;;4899464;29;20486;-69
2023/09/09 08:35:25;;;;;;;3.60;3.30;;;28.30;66.60;;;;;;4899349;29;20468;-68
2023/09/09 08:37:53;;;;;;;3.33;3.03;;;28.50;66.10;;;;;;4899374;29;20453;-67
2023/09/09 08:40:20;;;;;;;3.73;3.43;;;28.60;67.20;;;;;;4899333;29;20455;-68
2023/09/09 08:42:58;;;;;;;4.40;3.13;;;28.80;66.60;;;;;;4899232;29;20453;-69
2023/09/09 08:45:34;;;;;;;3.47;3.17;;;28.80;66.00;;;;;;4898961;29;20884;-70
2023/09/09 08:48:06;;;;;;;3.70;3.40;;;28.80;66.10;;;;;;4900085;29;20835;-69
2023/09/09 08:50:36;;;;;;;3.30;3.00;;;28.80;66.30;;;;;;4898990;29;20505;-71
2023/09/09 08:53:06;;;;;;;4.30;4.00;;;28.80;66.00;;;;;;4899108;29;20450;-69
2023/09/09 08:55:33;;;;;;;4.37;3.27;;;28.60;66.20;;;;;;4898898;29;20458;-70
2023/09/09 08:58:00;;;;;;;3.20;2.90;;;28.90;66.30;;;;;;4899013;29;20453;-69
2023/09/09 09:00:33;;;;;;;3.50;3.17;;;29.00;66.10;;;;;;4898877;29;20452;-70
2023/09/09 09:03:00;;;;;;;3.30;3.00;;;28.70;64.70;;;;;;4899442;29;20458;-69
2023/09/09 09:05:27;;;;;;;3.67;3.37;;;28.90;65.20;;;;;;4898844;29;20859;-70
2023/09/09 09:07:54;;;;;;;3.93;3.60;;;29.00;64.30;;;;;;4898860;29;20449;-69
2023/09/09 09:10:23;;;;;;;3.23;2.93;;;29.10;64.10;;;;;;4898703;29;20512;-68
2023/09/09 09:12:50;;;;;;;4.23;3.83;;;28.90;64.70;;;;;;4898719;29;20450;-69
2023/09/09 09:15:17;;;;;;;4.40;3.60;;;28.80;66.30;;;;;;4898703;29;20501;-69
2023/09/09 09:17:44;;;;;;;3.43;3.10;;;28.70;65.80;;;;;;4898350;29;20502;-70
2023/09/09 09:20:25;;;;;;;3.60;3.30;;;28.60;66.50;;;;;;4898581;29;20481;-70
2023/09/09 09:22:52;;;;;;;3.47;3.17;;;28.40;66.20;;;;;;4898611;29;20508;-69
2023/09/09 09:25:22;;;;;;;3.70;3.30;;;28.30;65.50;;;;;;4898524;29;20450;-70
2023/09/09 09:27:48;;;;;;;3.33;3.03;;;28.30;64.90;;;;;;4898528;29;20846;-68
2023/09/09 09:30:16;;;;;;;3.30;2.93;;;28.40;65.80;;;;;;4898439;29;20512;-70
2023/09/09 09:32:42;;;;;;;3.63;3.10;;;28.40;65.80;;;;;;4898420;29;20556;-70
2023/09/09 09:35:23;;;;;;;3.80;3.50;;;28.20;65.60;;;;;;4898429;29;20460;-70
2023/09/09 09:37:53;;;;;;;3.23;2.70;;;28.10;64.30;;;;;;4898481;29;20754;-71
2023/09/09 09:40:19;;;;;;;3.90;3.53;;;28.30;65.50;;;;;;4898375;29;20477;-69
2023/09/09 09:42:48;;;;;;;5.33;3.20;;;28.40;64.90;;;;;;4898531;29;20472;-71
2023/09/09 09:45:15;;;;;;;3.70;3.40;;;28.60;63.70;;;;;;4898321;29;20445;-71
2023/09/09 09:47:43;;;;;;;3.63;2.63;;;28.80;63.70;;;;;;4898274;29;20476;-70
2023/09/09 09:50:18;;;;;;;2.90;2.40;;;28.90;60.70;;;;;;4898172;29;20524;-70
2023/09/09 09:52:48;;;;;;;3.50;2.70;;;29.10;60.90;;;;;;4898250;29;20496;-73
2023/09/09 09:55:18;;;;;;;8.20;3.10;;;29.30;60.80;;;;;;4898244;29;20453;-74
2023/09/09 09:57:46;;;;;;;3.13;2.83;;;29.30;59.60;;;;;;4898231;29;20445;-72
2023/09/09 10:00:15;;;;;;;4.73;2.70;;;29.10;61.10;;;;;;4898101;29;20445;-71
2023/09/09 10:02:42;;;;;;;3.00;2.70;;;29.10;60.40;;;;;;4897658;29;20481;-71
2023/09/09 10:05:14;;;;;;;4.10;2.50;;;29.20;60.70;;;;;;4897776;29;21007;-69
2023/09/09 10:07:44;;;;;;;2.50;2.30;;;29.50;60.10;;;;;;4900739;29;20437;-70
2023/09/09 10:10:16;;;;;;;3.90;2.70;;;29.70;59.00;;;;;;4901982;29;20473;-71
2023/09/09 10:12:51;;;;;;;2.43;2.17;;;29.80;58.40;;;;;;4901934;29;20477;-73
2023/09/09 10:15:19;;;;;;;2.40;2.20;;;30.00;58.50;;;;;;4902339;29;20822;-72
2023/09/09 10:17:47;;;;;;;4.07;3.10;;;30.10;57.50;;;;;;4901849;29;20449;-72
2023/09/09 10:20:15;;;;;;;4.20;2.50;;;30.30;58.60;;;;;;4902372;29;20464;-72
2023/09/09 10:22:42;;;;;;;4.13;3.73;;;30.10;55.70;;;;;;4901497;29;20982;-71
2023/09/09 10:25:11;;;;;;;3.10;2.60;;;29.70;59.50;;;;;;4901741;29;20460;-72
2023/09/09 10:27:39;;;;;;;3.80;2.83;;;29.50;60.80;;;;;;4901716;29;20528;-72
2023/09/09 10:30:10;;;;;;;4.00;2.80;;;29.60;61.40;;;;;;4901306;29;21056;-71
2023/09/09 10:32:38;;;;;;;3.33;3.03;;;29.70;61.50;;;;;;4901330;29;20477;-71
2023/09/09 10:35:06;;;;;;;3.10;2.80;;;29.70;60.10;;;;;;4901485;29;20487;-70
2023/09/09 10:37:34;;;;;;;3.30;2.90;;;29.80;60.60;;;;;;4901158;29;21004;-70
2023/09/09 10:40:02;;;;;;;3.37;3.07;;;30.00;59.80;;;;;;4901476;29;20484;-69
2023/09/09 10:42:30;;;;;;;3.00;2.70;;;30.10;60.60;;;;;;4901525;29;20555;-70
2023/09/09 10:45:22;;;;;;;3.53;3.23;;;30.10;60.50;;;;;;4901594;29;20457;-68
2023/09/09 10:47:52;;;;;;;4.00;2.57;;;30.10;61.40;;;;;;4901448;29;20445;-71
2023/09/09 10:50:20;;;;;;;4.27;3.80;;;30.00;59.40;;;;;;4901368;29;20489;-68
2023/09/09 10:52:47;;;;;;;4.23;3.27;;;29.80;61.00;;;;;;4901272;29;20445;-69
2023/09/09 10:55:14;;;;;;;3.17;2.57;;;29.90;61.00;;;;;;4901285;29;20456;-67
2023/09/09 10:57:41;;;;;;;3.83;3.53;;;30.00;62.40;;;;;;4901320;29;20449;-68
2023/09/09 11:00:47;;;;;;;6.10;3.63;;;30.20;59.70;;;;;;4901197;29;20453;-69
2023/09/09 11:03:15;;;;;;;4.20;3.33;;;30.40;58.90;;;;;;4901163;29;20441;-69
2023/09/09 11:06:03;;;;;;;6.83;2.73;;;30.50;60.20;;;;;;4900987;29;20483;-69
2023/09/09 11:08:32;;;;;;;3.87;3.47;;;30.50;58.00;;;;;;4901024;29;20437;-69
2023/09/09 11:11:10;;;;;;;3.20;2.90;;;30.60;58.70;;;;;;4900729;29;20497;-69
2023/09/09 11:13:49;;;;;;;3.53;2.73;;;30.70;57.00;;;;;;4900865;29;20529;-67
2023/09/09 11:16:32;;;;;;;3.67;2.70;;;30.80;57.20;;;;;;4900913;29;20441;-69
2023/09/09 11:19:04;;;;;;;3.07;2.77;;;30.80;57.30;;;;;;4900602;29;20566;-69
2023/09/09 11:21:33;;;;;;;3.33;3.03;;;30.80;56.50;;;;;;4900433;29;20476;-69
2023/09/09 11:24:01;;;;;;;3.07;2.77;;;30.70;56.80;;;;;;4900745;29;20449;-68
2023/09/09 11:26:28;;;;;;;3.27;2.97;;;30.60;57.60;;;;;;4900680;29;20456;-69
2023/09/09 11:28:55;;;;;;;3.93;3.20;;;30.40;57.90;;;;;;4900660;29;20536;-69
2023/09/09 11:31:23;;;;;;;3.50;3.00;;;30.20;58.30;;;;;;4900993;29;20972;-69
2023/09/09 11:33:51;;;;;;;3.67;3.37;;;30.30;58.80;;;;;;4900568;29;20449;-71
2023/09/09 11:36:18;;;;;;;3.83;2.83;;;30.40;59.10;;;;;;4900501;29;20803;-71
2023/09/09 11:38:45;;;;;;;3.93;3.30;;;30.40;59.30;;;;;;4900465;29;20454;-71
2023/09/09 11:41:19;;;;;;;4.03;3.13;;;30.50;58.70;;;;;;4900020;29;21009;-70
2023/09/09 11:43:46;;;;;;;3.17;2.87;;;30.60;57.70;;;;;;4900398;29;20434;-70
2023/09/09 11:46:13;;;;;;;2.70;2.50;;;30.90;57.10;;;;;;4900310;29;20541;-70
2023/09/09 11:48:40;;;;;;;4.40;3.30;;;31.00;56.00;;;;;;4900008;29;20972;-71
2023/09/09 11:51:08;;;;;;;3.70;3.07;;;30.90;56.70;;;;;;4900005;29;20500;-71
2023/09/09 11:53:35;;;;;;;3.57;2.70;;;31.10;57.10;;;;;;4900240;29;20450;-70
2023/09/09 11:56:03;;;;;;;3.90;2.87;;;31.20;56.90;;;;;;4900145;29;20445;-71
2023/09/09 11:58:38;;;;;;;3.50;3.20;;;31.30;56.20;;;;;;4899749;29;21050;-70
2023/09/09 12:01:05;;;;;;;4.10;2.87;;;31.70;56.00;;;;;;4899821;29;20480;-70
2023/09/09 12:03:32;;;;;;;3.50;3.07;;;31.90;55.50;;;;;;4899965;29;20461;-71
2023/09/09 12:05:59;;;;;;;2.87;2.57;;;32.10;55.50;;;;;;4900003;29;20453;-70
2023/09/09 12:08:27;;;;;;;2.93;2.50;;;32.40;54.60;;;;;;4899929;29;20449;-70
2023/09/09 12:10:57;;;;;;;3.37;3.00;;;32.40;54.80;;;;;;4899701;29;20496;-71
2023/09/09 12:13:24;;;;;;;3.17;2.87;;;32.20;53.80;;;;;;4899781;29;20453;-70
2023/09/09 12:15:52;;;;;;;3.10;2.60;;;32.40;54.30;;;;;;4899765;29;20496;-71
2023/09/09 12:18:19;;;;;;;3.20;2.80;;;32.40;53.50;;;;;;4899428;29;20948;-70
2023/09/09 12:21:02;;;;;;;4.13;3.13;;;31.90;53.70;;;;;;4899632;29;20469;-71
2023/09/09 12:23:31;;;;;;;2.60;2.40;;;31.90;55.60;;;;;;4899348;29;20446;-70
2023/09/09 12:26:06;;;;;;;3.37;3.00;;;31.70;54.30;;;;;;4899483;29;20457;-72
2023/09/09 12:28:33;;;;;;;3.27;2.80;;;31.90;54.80;;;;;;4899170;29;20440;-71
2023/09/09 12:31:00;;;;;;;3.90;2.87;;;32.40;53.00;;;;;;4898850;29;20489;-72
2023/09/09 12:33:28;;;;;;;3.33;2.53;;;32.80;54.80;;;;;;4899177;29;20446;-68
2023/09/09 12:35:55;;;;;;;3.13;2.33;;;32.70;52.60;;;;;;4899413;29;20457;-69
2023/09/09 12:38:22;;;;;;;3.70;2.93;;;32.50;52.50;;;;;;4899335;29;20461;-69
2023/09/09 12:40:51;;;;;;;3.20;2.27;;;32.50;52.70;;;;;;4899240;29;20543;-69
2023/09/09 12:43:21;;;;;;;3.83;3.00;;;32.70;52.80;;;;;;4899410;29;20839;-68
2023/09/09 12:45:49;;;;;;;2.90;2.33;;;32.70;52.40;;;;;;4899258;29;20520;-68
2023/09/09 12:48:15;;;;;;;3.10;2.80;;;32.70;53.40;;;;;;4898895;29;20814;-69
2023/09/09 12:50:42;;;;;;;3.40;2.50;;;32.60;53.00;;;;;;4899017;29;20548;-69
2023/09/09 12:53:09;;;;;;;3.80;2.53;;;32.10;53.50;;;;;;4899107;29;20453;-68
2023/09/09 12:55:36;;;;;;;2.97;2.53;;;32.10;54.20;;;;;;4898994;29;20457;-68
2023/09/09 12:58:04;;;;;;;3.73;2.80;;;32.20;53.30;;;;;;4898988;29;20553;-68
2023/09/09 13:00:31;;;;;;;3.77;2.40;;;32.30;52.90;;;;;;4898741;29;20517;-69
2023/09/09 13:02:58;;;;;;;2.60;2.40;;;32.30;53.10;;;;;;4898880;29;20831;-69
2023/09/09 13:05:24;;;;;;;3.83;2.43;;;32.30;52.70;;;;;;4898788;29;20449;-69
2023/09/09 13:07:51;;;;;;;4.50;2.50;;;32.40;51.80;;;;;;4899376;29;20513;-68
2023/09/09 13:10:18;;;;;;;2.90;2.53;;;32.20;52.30;;;;;;4898716;29;20485;-69
2023/09/09 13:12:45;;;;;;;3.40;2.70;;;32.50;52.20;;;;;;4898655;29;20551;-69
2023/09/09 13:15:14;;;;;;;3.73;2.50;;;32.80;51.90;;;;;;4898658;29;20450;-68
2023/09/09 13:17:40;;;;;;;4.30;2.60;;;32.80;50.60;;;;;;4899193;29;20449;-68
2023/09/09 13:20:09;;;;;;;4.00;2.70;;;33.00;51.60;;;;;;4898640;29;20493;-68
2023/09/09 13:22:36;;;;;;;3.83;2.80;;;33.10;51.70;;;;;;4898584;29;20860;-69
2023/09/09 13:25:04;;;;;;;2.83;2.50;;;33.30;51.30;;;;;;4898635;29;20456;-69
2023/09/09 13:27:31;;;;;;;3.80;2.60;;;33.50;50.50;;;;;;4898547;29;20449;-69
2023/09/09 13:29:57;;;;;;;3.83;2.50;;;33.70;51.00;;;;;;4898444;29;20453;-69
2023/09/09 13:32:25;;;;;;;3.00;2.57;;;33.80;50.30;;;;;;4898372;29;20469;-69
2023/09/09 13:34:52;;;;;;;5.07;2.27;;;33.80;50.60;;;;;;4898425;29;20453;-69
2023/09/09 13:37:19;;;;;;;2.80;2.40;;;34.00;49.30;;;;;;4898383;29;20461;-69
2023/09/09 13:39:45;;;;;;;3.43;2.73;;;34.10;50.00;;;;;;4898931;29;20453;-68
2023/09/09 13:42:12;;;;;;;3.13;2.47;;;34.10;50.10;;;;;;4898359;29;20472;-69
2023/09/09 13:44:38;;;;;;;2.83;2.40;;;33.90;50.10;;;;;;4898346;29;20461;-69
2023/09/09 13:47:05;;;;;;;3.50;2.30;;;34.00;49.70;;;;;;4898287;29;20450;-68
2023/09/09 13:49:35;;;;;;;2.93;2.53;;;34.20;50.20;;;;;;4898251;29;20453;-69
2023/09/09 13:52:02;;;;;;;2.73;2.43;;;34.50;50.20;;;;;;4898053;29;20571;-68
2023/09/09 13:54:29;;;;;;;2.67;2.33;;;34.40;49.10;;;;;;4898274;29;20452;-69
2023/09/09 13:56:56;;;;;;;3.40;2.30;;;34.20;49.00;;;;;;4898206;29;20452;-69
2023/09/09 13:59:22;;;;;;;4.00;2.67;;;34.30;49.80;;;;;;4898157;29;20461;-69
2023/09/09 14:01:49;;;;;;;3.53;2.50;;;34.50;49.60;;;;;;4897673;29;21016;-70
2023/09/09 14:04:16;;;;;;;2.63;2.43;;;34.80;48.40;;;;;;4898143;29;20457;-69
2023/09/09 14:06:45;;;;;;;4.03;2.60;;;35.10;48.70;;;;;;4898933;29;20460;-69
2023/09/09 14:09:11;;;;;;;3.37;2.20;;;35.40;47.60;;;;;;4898164;29;20540;-69
2023/09/09 14:11:38;;;;;;;3.43;2.43;;;35.60;48.10;;;;;;4898009;29;20500;-70
2023/09/09 14:14:05;;;;;;;2.60;2.40;;;35.40;47.90;;;;;;4898222;29;20520;-69
2023/09/09 14:16:31;;;;;;;3.17;2.40;;;35.30;48.80;;;;;;4898136;29;20445;-69
2023/09/09 14:18:58;;;;;;;4.07;2.60;;;35.20;47.70;;;;;;4898106;29;20864;-69
2023/09/09 14:21:25;;;;;;;4.43;2.50;;;34.90;48.10;;;;;;4897736;29;21017;-69
2023/09/09 14:23:53;;;;;;;3.50;2.57;;;34.90;48.50;;;;;;4897758;29;20456;-69
2023/09/09 14:26:20;;;;;;;4.43;2.30;;;35.20;48.80;;;;;;4897991;29;20488;-70
2023/09/09 14:28:47;;;;;;;3.93;2.37;;;35.60;47.10;;;;;;4898214;29;20449;-69
2023/09/09 14:31:14;;;;;;;3.73;2.43;;;35.70;47.80;;;;;;4898021;29;20489;-69
2023/09/09 14:33:41;;;;;;;3.90;2.37;;;36.10;46.60;;;;;;4897868;29;20524;-69
2023/09/09 14:36:07;;;;;;;4.90;3.00;;;37.00;45.80;;;;;;4897830;29;20452;-70
2023/09/09 14:38:34;;;;;;;3.43;2.30;;;38.10;43.60;;;;;;4897526;29;20457;-69
2023/09/09 14:41:03;;;;;;;2.87;2.57;;;38.80;42.70;;;;;;4897431;29;21131;-70
2023/09/09 14:43:32;;;;;;;4.77;2.70;;;38.60;43.40;;;;;;4897859;29;20449;-69
2023/09/09 14:45:58;;;;;;;2.40;2.13;;;39.30;42.60;;;;;;4897771;29;20452;-69
2023/09/09 14:48:25;;;;;;;4.80;2.80;;;40.60;41.90;;;;;;4897770;29;20217;-68
2023/09/09 14:50:54;;;;;;;2.10;1.90;;;41.20;39.30;;;;;;4897261;29;20616;-69
2023/09/09 14:53:21;;;;;;;4.28;2.22;;;41.70;38.80;;;;;;4899587;29;20213;-72
2023/09/09 14:55:48;;;;;;;2.85;2.60;;;42.20;37.80;;;;;;4901254;29;20209;-72
2023/09/09 14:58:16;;;;;;;3.70;2.58;;;42.70;37.90;;;;;;4901217;29;20215;-71
2023/09/09 15:00:43;;;;;;;4.25;2.42;;;42.50;37.50;;;;;;4900920;29;20236;-70
2023/09/09 15:03:09;;;;;;;5.47;3.35;;;42.20;37.90;;;;;;4901135;29;20196;-69
2023/09/09 15:05:36;;;;;;;2.92;2.63;;;42.60;37.20;;;;;;4900711;29;20624;-69
2023/09/09 15:08:03;;;;;;;3.55;2.17;;;42.30;37.60;;;;;;4900751;29;20577;-69
2023/09/09 15:10:29;;;;;;;3.25;2.30;;;42.80;37.50;;;;;;4900795;29;20652;-70
2023/09/09 15:12:56;;;;;;;3.95;2.88;;;43.40;36.60;;;;;;4900688;29;20620;-69
2023/09/09 15:15:24;;;;;;;2.60;2.28;;;43.40;36.70;;;;;;4900655;29;20267;-69
2023/09/09 15:17:51;;;;;;;3.13;2.10;;;43.60;35.60;;;;;;4900574;29;20679;-69
2023/09/09 15:20:17;;;;;;;2.70;2.25;;;42.60;36.50;;;;;;4900794;29;20208;-68
2023/09/09 15:22:44;;;;;;;2.53;2.28;;;42.40;37.60;;;;;;4900682;29;20236;-68
2023/09/09 15:25:11;;;;;;;3.60;2.30;;;42.40;37.30;;;;;;4900773;29;20266;-70
2023/09/09 15:27:37;;;;;;;3.72;2.10;;;42.10;38.00;;;;;;4900685;29;20268;-69
2023/09/09 15:30:05;;;;;;;2.75;2.28;;;40.00;39.40;;;;;;4900623;29;20307;-69
2023/09/09 15:32:33;;;;;;;3.03;2.30;;;38.70;41.40;;;;;;4900446;29;20236;-69
2023/09/09 15:35:00;;;;;;;3.57;2.20;;;38.00;43.00;;;;;;4900258;29;20943;-69
2023/09/09 15:37:26;;;;;;;3.07;2.53;;;37.40;44.00;;;;;;4900212;29;20456;-69
2023/09/09 15:39:53;;;;;;;5.10;2.70;;;36.70;45.20;;;;;;4900967;29;20460;-69
2023/09/09 15:42:20;;;;;;;4.87;2.80;;;35.70;46.50;;;;;;4900082;29;20465;-69
2023/09/09 15:44:49;;;;;;;2.63;2.37;;;34.90;47.70;;;;;;4900389;29;20501;-69
2023/09/09 15:47:16;;;;;;;4.87;2.60;;;34.20;48.70;;;;;;4900370;29;20527;-69
2023/09/09 15:49:44;;;;;;;2.87;2.40;;;33.40;50.20;;;;;;4900251;29;20445;-69
2023/09/09 15:52:11;;;;;;;3.17;2.77;;;33.00;51.50;;;;;;4900102;29;20545;-69
2023/09/09 15:54:38;;;;;;;3.47;3.00;;;32.70;51.90;;;;;;4899913;29;20450;-69
2023/09/09 15:57:05;;;;;;;3.40;2.80;;;32.50;52.30;;;;;;4900094;29;20458;-69
2023/09/09 15:59:31;;;;;;;3.20;2.73;;;32.10;52.80;;;;;;4900123;29;20455;-69
2023/09/09 16:01:58;;;;;;;6.17;2.90;;;31.80;54.00;;;;;;4899710;29;20485;-68
2023/09/09 16:04:25;;;;;;;3.27;2.97;;;31.50;54.00;;;;;;4898942;29;20504;-68
2023/09/09 16:06:53;;;;;;;5.00;2.87;;;31.30;54.70;;;;;;4899955;29;20450;-68
2023/09/09 16:09:19;;;;;;;4.03;3.07;;;31.20;54.60;;;;;;4899969;29;20457;-68
2023/09/09 16:11:46;;;;;;;3.30;2.90;;;31.00;55.80;;;;;;4899809;29;20486;-69
2023/09/09 16:14:13;;;;;;;4.53;3.40;;;31.10;56.20;;;;;;4899838;29;20449;-71
2023/09/09 16:16:40;;;;;;;5.33;2.73;;;30.80;57.30;;;;;;4900531;29;20509;-71
2023/09/09 16:19:07;;;;;;;5.77;3.60;;;30.60;57.70;;;;;;4899761;29;20559;-69
2023/09/09 16:21:38;;;;;;;4.70;3.10;;;30.50;57.90;;;;;;4899690;29;20875;-68
2023/09/09 16:24:08;;;;;;;4.97;3.37;;;30.50;58.00;;;;;;4900069;29;20489;-69
2023/09/09 16:26:35;;;;;;;6.10;3.80;;;30.50;58.40;;;;;;4899569;29;20445;-70
2023/09/09 16:29:01;;;;;;;3.77;3.20;;;30.50;58.20;;;;;;4899562;29;20449;-69
2023/09/09 16:31:28;;;;;;;3.33;3.03;;;30.30;58.20;;;;;;4899081;29;20492;-70
2023/09/09 16:33:55;;;;;;;4.37;3.97;;;30.30;58.70;;;;;;4899471;29;20441;-69
2023/09/09 16:36:22;;;;;;;3.20;2.57;;;30.20;58.40;;;;;;4899133;29;20971;-69
2023/09/09 16:38:48;;;;;;;3.63;3.17;;;30.20;58.10;;;;;;4899307;29;20484;-69
2023/09/09 16:41:16;;;;;;;4.13;3.70;;;30.40;58.20;;;;;;4899290;29;20469;-71
2023/09/09 16:43:43;;;;;;;3.53;2.93;;;30.50;57.70;;;;;;4899308;29;20501;-70
2023/09/09 16:46:10;;;;;;;3.77;3.37;;;30.50;57.60;;;;;;4899050;29;20871;-69
2023/09/09 16:48:37;;;;;;;4.00;2.70;;;30.40;57.70;;;;;;4899478;29;20454;-68
2023/09/09 16:51:04;;;;;;;4.30;3.00;;;30.20;57.90;;;;;;4899062;29;20541;-69
2023/09/09 16:53:31;;;;;;;3.10;2.80;;;30.30;58.30;;;;;;4899252;29;20453;-70